Time;durP1;ratioP1;P1;durP2;ratioP2;P2;SDS_P1;SDS_P2;PMS_P1;PMS_P2;Temp;Humidity;BMP_temperature;BMP_pressure;BME280_temperature;BME280_humidity;BME280_pressure;Samples;Min_cycle;Max_cycle;Signal;HPM_P1;HPM_P2
2022/03/10 00:02:09;;;;;;;33.15;14.93;;;;;;;5.34;41.46;101605.31;5033711;28;20068;-78
2022/03/10 00:04:54;;;;;;;38.45;18.60;;;;;;;5.44;41.99;101611.59;5033408;28;20052;-78
2022/03/10 00:07:39;;;;;;;31.60;14.43;;;;;;;5.54;42.25;101608.97;5037097;28;20040;-78
2022/03/10 00:10:24;;;;;;;28.23;14.70;;;;;;;5.68;41.89;101612.06;5029776;28;20045;-78
2022/03/10 00:13:09;;;;;;;36.58;19.65;;;;;;;5.69;42.28;101607.47;5000492;28;20053;-78
2022/03/10 00:15:54;;;;;;;31.73;15.50;;;;;;;6.00;41.50;101614.69;5016112;28;20049;-78
2022/03/10 00:18:39;;;;;;;34.92;16.33;;;;;;;5.71;41.73;101611.53;5012990;28;20048;-78
2022/03/10 00:21:24;;;;;;;31.25;15.60;;;;;;;5.64;41.45;101608.22;5013782;28;20048;-78
2022/03/10 00:24:08;;;;;;;29.70;14.65;;;;;;;5.64;42.12;101613.63;5022559;28;20048;-78
2022/03/10 00:26:53;;;;;;;30.27;15.13;;;;;;;5.88;40.16;101611.41;5032745;28;20409;-78
2022/03/10 00:29:38;;;;;;;32.08;17.42;;;;;;;5.90;40.59;101614.63;5033395;28;20040;-78
2022/03/10 00:32:23;;;;;;;31.33;16.02;;;;;;;5.87;40.46;101617.84;5051898;28;20499;-78
2022/03/10 00:35:08;;;;;;;28.63;14.85;;;;;;;5.69;42.97;101618.28;5033275;28;20044;-78
2022/03/10 00:37:54;;;;;;;39.65;19.73;;;;;;;5.62;42.92;101618.50;5048326;28;20056;-78
2022/03/10 00:40:39;;;;;;;;;;;;;;;5.30;41.89;101617.69;5046717;28;20045;-78
2022/03/10 00:43:23;;;;;;;39.83;19.70;;;;;;;5.13;42.20;101624.03;5026493;28;19913;-78
2022/03/10 00:46:09;;;;;;;28.77;14.55;;;;;;;5.25;41.31;101628.44;5020748;28;20052;-78
2022/03/10 00:48:54;;;;;;;36.72;17.98;;;;;;;4.94;41.66;101617.41;5033103;28;20041;-78
2022/03/10 00:51:40;;;;;;;28.98;14.57;;;;;;;5.18;42.35;101617.91;5030213;28;20037;-78
2022/03/10 00:54:25;;;;;;;32.90;17.48;;;;;;;5.29;43.08;101613.38;5022135;28;20068;-78
2022/03/10 00:57:10;;;;;;;32.35;14.02;;;;;;;5.37;44.07;101621.81;5032593;28;20128;-78
2022/03/10 00:59:55;;;;;;;25.23;13.40;;;;;;;4.85;41.85;101616.25;5021293;28;20044;-78
2022/03/10 01:02:40;;;;;;;25.90;13.77;;;;;;;4.88;42.21;101617.59;5042381;28;20056;-78
2022/03/10 01:05:25;;;;;;;26.15;13.63;;;;;;;5.26;43.26;101625.50;5036678;28;20052;-78
2022/03/10 01:08:09;;;;;;;25.15;13.15;;;;;;;5.42;43.21;101618.34;5025116;28;20036;-78
2022/03/10 01:10:54;;;;;;;28.83;14.18;;;;;;;5.49;43.40;101622.44;5012814;28;20037;-78
2022/03/10 01:13:39;;;;;;;25.55;13.05;;;;;;;5.49;40.16;101625.13;5022391;28;20044;-78
2022/03/10 01:16:24;;;;;;;27.70;12.88;;;;;;;5.54;39.96;101622.47;5041516;28;20068;-78
2022/03/10 01:19:10;;;;;;;29.27;14.52;;;;;;;5.31;40.44;101622.03;5012930;28;20516;-78
2022/03/10 01:21:55;;;;;;;;;;;;;;;5.11;44.84;101618.09;5013603;28;20049;-78
2022/03/10 01:24:41;;;;;;;37.33;16.27;;;;;;;5.26;42.33;101616.59;5016739;28;20288;-78
2022/03/10 01:27:26;;;;;;;40.72;17.88;;;;;;;4.85;42.50;101621.63;5015323;28;20057;-78
2022/03/10 01:30:12;;;;;;;31.27;16.55;;;;;;;4.76;43.53;101609.69;5039702;28;20543;-78
2022/03/10 01:32:57;;;;;;;40.17;19.30;;;;;;;4.76;45.51;101615.06;5016862;28;20049;-78
2022/03/10 01:35:43;;;;;;;44.53;20.75;;;;;;;4.81;46.40;101604.34;5014694;28;20054;-78
2022/03/10 01:38:28;;;;;;;31.92;15.77;;;;;;;4.58;44.88;101618.09;5012921;28;20053;-78
2022/03/10 01:41:13;;;;;;;41.05;22.95;;;;;;;4.91;44.80;101619.78;5016903;28;20045;-78
2022/03/10 01:44:01;;;;;;;31.92;16.25;;;;;;;4.79;44.38;101601.09;5015923;28;20060;-78
2022/03/10 01:46:46;;;;;;;39.92;20.60;;;;;;;4.57;44.08;101608.41;5012116;28;20053;-78
2022/03/10 01:49:32;;;;;;;38.35;19.73;;;;;;;4.54;44.30;101611.59;5016527;28;20076;-78
2022/03/10 01:52:19;;;;;;;39.85;19.80;;;;;;;4.30;45.07;101606.50;5022489;28;20064;-78
2022/03/10 01:55:04;;;;;;;40.88;20.33;;;;;;;4.02;45.48;101606.69;5032705;28;20538;-78
2022/03/10 01:57:50;;;;;;;43.85;20.55;;;;;;;4.37;47.61;101606.28;5041388;28;20099;-78
2022/03/10 02:00:34;;;;;;;32.45;14.93;;;;;;;4.44;46.79;101600.72;5037396;28;20076;-78
2022/03/10 02:03:19;;;;;;;33.42;17.05;;;;;;;4.63;47.04;101600.13;5041207;28;20397;-78
2022/03/10 02:06:05;;;;;;;32.72;16.40;;;;;;;3.98;47.87;101600.16;5019839;28;20056;-78
2022/03/10 02:11:53;;;;;;;42.17;19.63;;;;;;;3.97;46.04;101611.19;5032125;28;19913;-78
2022/03/10 02:17:45;;;;;;;38.33;18.13;;;;;;;3.70;46.65;101605.72;5033237;28;20052;-78
2022/03/10 02:20:31;;;;;;;35.50;15.02;;;;;;;4.05;46.39;101592.75;5032090;28;20048;-78
2022/03/10 02:23:16;;;;;;;40.85;18.70;;;;;;;4.07;47.05;101589.78;5032574;28;20516;-78
2022/03/10 02:26:02;;;;;;;42.53;18.08;;;;;;;3.81;45.70;101586.75;5032489;28;20052;-78
2022/03/10 02:28:49;;;;;;;37.88;17.65;;;;;;;3.20;46.98;101590.44;5031673;28;20045;-78
2022/03/10 02:31:34;;;;;;;38.15;18.13;;;;;;;3.66;47.06;101589.25;5036122;28;20040;-78
2022/03/10 02:34:21;;;;;;;36.28;18.08;;;;;;;4.07;46.26;101585.22;5031306;28;20052;-79
2022/03/10 02:37:06;;;;;;;32.53;16.90;;;;;;;4.28;45.69;101586.28;5030607;28;20052;-76
2022/03/10 02:39:51;;;;;;;33.42;14.07;;;;;;;4.24;45.01;101585.16;5031203;28;20048;-77
2022/03/10 02:42:37;;;;;;;30.55;14.82;;;;;;;4.20;45.42;101582.16;5035109;28;20401;-76
2022/03/10 02:45:23;;;;;;;35.97;18.48;;;;;;;4.24;45.43;101577.91;5034334;28;20060;-79
2022/03/10 02:48:08;;;;;;;38.97;18.77;;;;;;;3.95;45.38;101581.84;5035185;28;20052;-76
2022/03/10 02:50:53;;;;;;;29.17;14.73;;;;;;;3.60;45.84;101595.63;5022393;28;20052;-76
2022/03/10 02:53:38;;;;;;;29.42;14.40;;;;;;;3.93;47.14;101589.34;5034638;28;20048;-76
2022/03/10 02:56:23;;;;;;;30.33;13.80;;;;;;;3.38;46.10;101592.88;5034850;28;20044;-77
2022/03/10 02:59:08;;;;;;;32.38;13.85;;;;;;;3.65;45.81;101587.63;5040076;28;20072;-76
2022/03/10 03:01:56;;;;;;;35.63;16.88;;;;;;;3.97;45.02;101595.84;5034432;28;20048;-76
2022/03/10 03:04:41;;;;;;;35.03;16.65;;;;;;;3.89;44.85;101588.22;5034625;28;20048;-76
2022/03/10 03:07:26;;;;;;;29.05;14.05;;;;;;;4.21;43.89;101588.34;5022616;28;20048;-76
2022/03/10 03:10:12;;;;;;;32.90;15.93;;;;;;;4.34;43.77;101596.03;5034314;28;20048;-79
2022/03/10 03:12:56;;;;;;;54.45;21.58;;;;;;;4.22;44.11;101608.81;5026793;28;20052;-76
2022/03/10 03:15:41;;;;;;;29.50;15.02;;;;;;;4.15;44.33;101603.63;5037927;28;20072;-76
2022/03/10 03:18:26;;;;;;;38.03;12.85;;;;;;;4.06;46.67;101610.53;5034688;28;20048;-76
2022/03/10 03:21:11;;;;;;;30.33;13.82;;;;;;;4.28;46.19;101600.53;5038172;28;20076;-78
2022/03/10 03:23:56;;;;;;;31.42;14.50;;;;;;;4.32;44.16;101608.13;5034205;28;20052;-76
2022/03/10 03:26:41;;;;;;;32.10;14.98;;;;;;;3.44;46.13;101613.41;5034011;28;20053;-79
2022/03/10 03:29:26;;;;;;;33.42;13.00;;;;;;;4.00;44.79;101614.19;5033898;28;20052;-76
2022/03/10 03:32:11;;;;;;;29.45;14.77;;;;;;;4.16;44.16;101607.97;5036687;28;20056;-77
2022/03/10 03:34:56;;;;;;;31.27;15.15;;;;;;;4.09;45.50;101617.25;5033954;28;20048;-76
2022/03/10 03:37:41;;;;;;;45.28;14.95;;;;;;;4.05;44.41;101619.66;5024740;28;20300;-76
2022/03/10 03:40:26;;;;;;;26.92;12.95;;;;;;;4.32;45.90;101612.44;5033777;28;20048;-76
2022/03/10 03:43:11;;;;;;;25.17;12.73;;;;;;;4.29;46.35;101609.44;5033910;28;20048;-76
2022/03/10 03:45:56;;;;;;;28.80;13.85;;;;;;;4.26;45.57;101609.94;5033941;28;20060;-77
2022/03/10 03:48:41;;;;;;;32.92;16.10;;;;;;;4.36;44.26;101609.25;5033667;28;20412;-76
2022/03/10 03:51:26;;;;;;;29.83;12.70;;;;;;;4.38;45.84;101607.91;5033871;28;20056;-77
2022/03/10 03:54:11;;;;;;;39.33;22.52;;;;;;;4.38;44.59;101604.41;5032921;28;20049;-76
2022/03/10 03:56:56;;;;;;;25.42;12.95;;;;;;;4.31;46.11;101604.63;5033499;28;20067;-79
2022/03/10 03:59:41;;;;;;;26.90;13.85;;;;;;;4.25;46.36;101600.25;5033329;28;20053;-76
2022/03/10 04:02:26;;;;;;;25.50;13.30;;;;;;;4.15;46.16;101603.63;5018941;28;20048;-76
2022/03/10 04:05:12;;;;;;;25.23;12.35;;;;;;;4.28;45.80;101600.53;5035006;28;20044;-76
2022/03/10 04:07:58;;;;;;;37.55;17.85;;;;;;;4.26;46.98;101604.56;5031716;28;20515;-77
2022/03/10 04:10:43;;;;;;;35.90;15.70;;;;;;;4.50;45.70;101610.47;5037994;28;20044;-79
2022/03/10 04:13:28;;;;;;;28.40;14.30;;;;;;;4.46;44.79;101604.00;5022829;28;20049;-76
2022/03/10 04:16:12;;;;;;;24.83;13.13;;;;;;;4.40;45.80;101600.41;5033279;28;20404;-80
2022/03/10 04:18:58;;;;;;;27.40;11.57;;;;;;;4.20;45.17;101598.31;5020260;28;20045;-79
2022/03/10 04:21:43;;;;;;;27.52;13.52;;;;;;;4.37;44.00;101600.13;5034227;28;20056;-79
2022/03/10 04:24:28;;;;;;;31.73;14.52;;;;;;;4.46;43.62;101609.38;5032544;28;20048;-75
2022/03/10 04:27:13;;;;;;;27.13;13.15;;;;;;;3.51;45.43;101612.41;5033470;28;20076;-75
2022/03/10 04:29:58;;;;;;;29.30;13.35;;;;;;;3.13;46.05;101615.84;5024535;28;20151;-75
2022/03/10 04:32:44;;;;;;;38.20;13.30;;;;;;;3.29;47.36;101615.03;5034154;28;20124;-75
2022/03/10 04:35:29;;;;;;;35.65;17.20;;;;;;;3.29;47.72;101607.81;5033764;28;20048;-75
2022/03/10 04:38:14;;;;;;;27.95;14.65;;;;;;;3.71;45.99;101620.78;5032783;28;20064;-75
2022/03/10 04:40:59;;;;;;;30.00;12.45;;;;;;;3.93;44.96;101616.25;5032521;28;20064;-75
2022/03/10 04:43:44;;;;;;;30.27;12.60;;;;;;;3.73;45.07;101618.66;5039139;28;20060;-75
2022/03/10 04:46:29;;;;;;;27.55;12.68;;;;;;;3.68;45.40;101614.03;5032465;28;20053;-76
2022/03/10 04:49:14;;;;;;;23.88;12.82;;;;;;;3.65;46.02;101611.03;5032605;28;20048;-79
2022/03/10 04:51:59;;;;;;;28.15;13.38;;;;;;;3.43;47.90;101609.09;5032542;28;20045;-76
2022/03/10 04:54:44;;;;;;;28.20;13.63;;;;;;;3.43;47.07;101611.78;5032339;28;20060;-79
2022/03/10 04:57:29;;;;;;;28.20;12.38;;;;;;;3.64;47.55;101612.09;5035606;28;20056;-78
2022/03/10 05:00:18;;;;;;;27.10;12.20;;;;;;;3.82;45.59;101609.09;5033287;28;20320;-75
2022/03/10 05:03:03;;;;;;;34.13;16.90;;;;;;;4.05;44.60;101608.88;5032130;28;20056;-76
2022/03/10 05:05:48;;;;;;;24.25;12.30;;;;;;;3.78;45.25;101622.25;5031854;28;20057;-76
2022/03/10 05:08:33;;;;;;;24.80;13.80;;;;;;;3.88;45.09;101624.25;5032388;28;20420;-76
2022/03/10 05:11:18;;;;;;;24.38;13.38;;;;;;;3.66;45.49;101624.19;5032256;28;20424;-76
2022/03/10 05:14:03;;;;;;;24.05;11.90;;;;;;;3.51;45.44;101620.47;5035624;28;20515;-77
2022/03/10 05:16:48;;;;;;;34.60;12.52;;;;;;;3.49;45.88;101622.59;5031913;28;20048;-76
2022/03/10 05:19:32;;;;;;;24.40;12.18;;;;;;;3.38;46.57;101625.13;5018802;22;20057;-70
2022/03/10 05:22:17;;;;;;;27.13;13.80;;;;;;;3.51;45.78;101623.16;4991951;28;20061;-71
2022/03/10 05:25:03;;;;;;;27.05;12.98;;;;;;;3.51;46.17;101629.34;4992719;28;20053;-71
2022/03/10 05:27:49;;;;;;;35.22;15.75;;;;;;;3.35;46.54;101636.38;4992657;28;20089;-69
2022/03/10 05:30:34;;;;;;;30.42;14.90;;;;;;;3.32;47.30;101627.97;4992630;28;20049;-71
2022/03/10 05:33:19;;;;;;;40.58;14.43;;;;;;;3.61;46.72;101634.06;4992670;28;20077;-73
2022/03/10 05:36:04;;;;;;;25.33;12.80;;;;;;;3.60;46.00;101637.84;4993177;28;20425;-73
2022/03/10 05:38:48;;;;;;;24.25;12.50;;;;;;;3.43;45.92;101644.03;5005349;28;20053;-74
2022/03/10 05:41:33;;;;;;;32.53;12.38;;;;;;;3.01;47.22;101651.66;4992553;28;20053;-74
2022/03/10 05:44:18;;;;;;;37.70;14.32;;;;;;;2.74;48.33;101652.50;4998189;28;20053;-74
2022/03/10 05:47:04;;;;;;;32.97;14.70;;;;;;;3.02;47.92;101647.09;4992644;28;20069;-74
2022/03/10 05:49:49;;;;;;;44.58;15.15;;;;;;;3.28;47.78;101651.84;4992511;28;20564;-76
2022/03/10 05:52:35;;;;;;;35.75;12.02;;;;;;;3.14;47.45;101655.09;4992733;28;20041;-74
2022/03/10 05:55:23;;;;;;;34.10;16.55;;;;;;;3.45;46.63;101660.72;4998124;28;20087;-74
2022/03/10 05:58:08;;;;;;;36.28;16.85;;;;;;;3.66;46.60;101653.78;4992737;28;20049;-74
2022/03/10 06:00:53;;;;;;;29.02;13.98;;;;;;;3.83;46.18;101659.97;4992538;28;20049;-74
2022/03/10 06:03:38;;;;;;;37.83;17.80;;;;;;;3.86;45.33;101645.19;4992737;28;20048;-74
2022/03/10 06:06:23;;;;;;;36.65;12.75;;;;;;;4.14;44.67;101655.00;4983660;28;20053;-74
2022/03/10 06:09:08;;;;;;;37.35;12.63;;;;;;;5.49;41.94;101651.28;4991937;28;20049;-76
2022/03/10 06:11:53;;;;;;;29.35;11.52;;;;;;;6.95;38.81;101658.50;4998085;28;20065;-73
2022/03/10 06:14:37;;;;;;;38.73;18.70;;;;;;;8.21;35.70;101660.31;4992720;28;20045;-76
2022/03/10 06:17:23;;;;;;;33.70;18.80;;;;;;;8.04;36.32;101672.28;4994828;28;20058;-75
2022/03/10 06:20:08;;;;;;;42.58;20.55;;;;;;;8.94;34.99;101656.72;4984060;28;20425;-75
2022/03/10 06:22:53;;;;;;;49.25;22.08;;;;;;;10.79;31.49;101672.56;4987788;28;20070;-75
2022/03/10 06:25:38;;;;;;;160.43;26.25;;;;;;;11.97;29.94;101671.25;4996298;28;20042;-72
2022/03/10 06:28:24;;;;;;;39.63;18.88;;;;;;;13.32;27.04;101667.81;4995957;28;20050;-73
2022/03/10 06:31:09;;;;;;;45.03;17.52;;;;;;;14.17;25.23;101672.16;4995879;28;20038;-72
2022/03/10 06:33:54;;;;;;;44.83;18.13;;;;;;;14.77;24.35;101677.06;4995898;28;20045;-75
2022/03/10 06:36:42;;;;;;;41.88;20.60;;;;;;;14.84;23.95;101674.66;4995642;28;20038;-73
2022/03/10 06:39:27;;;;;;;36.00;19.48;;;;;;;15.96;22.97;101678.13;5014967;28;20046;-73
2022/03/10 06:42:12;;;;;;;44.53;18.13;;;;;;;16.06;22.47;101672.28;4995184;28;20042;-73
2022/03/10 06:44:56;;;;;;;41.55;18.98;;;;;;;16.73;21.88;101678.91;5014828;28;20054;-73
2022/03/10 06:47:41;;;;;;;27.55;13.88;;;;;;;16.36;22.40;101686.03;4995545;28;20046;-73
2022/03/10 06:50:28;;;;;;;37.60;18.75;;;;;;;17.89;20.77;101698.94;4995522;28;20046;-75
2022/03/10 06:53:13;;;;;;;39.70;18.38;;;;;;;16.86;21.60;101689.66;4995655;28;20038;-73
2022/03/10 06:55:58;;;;;;;48.33;19.02;;;;;;;13.49;25.82;101692.56;4995411;28;20485;-73
2022/03/10 06:58:43;;;;;;;33.20;14.30;;;;;;;10.68;30.47;101681.97;4995436;28;20046;-73
2022/03/10 07:01:28;;;;;;;43.47;17.38;;;;;;;10.13;31.96;101686.94;4995291;28;20046;-75
2022/03/10 07:04:13;;;;;;;34.78;14.68;;;;;;;8.72;34.65;101688.06;4995277;28;20050;-73
2022/03/10 07:06:58;;;;;;;33.25;13.18;;;;;;;8.10;36.64;101692.84;4995159;28;20061;-75
2022/03/10 07:09:43;;;;;;;33.38;13.18;;;;;;;7.95;37.93;101689.38;4995273;28;20065;-72
2022/03/10 07:12:28;;;;;;;39.45;14.25;;;;;;;7.96;38.43;101699.13;4994899;28;20049;-72
2022/03/10 07:15:14;;;;;;;49.50;17.88;;;;;;;8.25;38.39;101700.13;4995316;28;20057;-75
2022/03/10 07:17:59;;;;;;;40.88;17.58;;;;;;;8.57;37.81;101697.91;4994859;28;20053;-75
2022/03/10 07:20:44;;;;;;;29.77;16.63;;;;;;;8.53;38.27;101698.72;4994773;28;20053;-72
2022/03/10 07:23:29;;;;;;;28.73;13.07;;;;;;;8.27;38.92;101699.88;4994999;28;20049;-74
2022/03/10 07:26:14;;;;;;;36.60;13.65;;;;;;;8.26;38.64;101701.75;4994814;28;20517;-74
2022/03/10 07:29:00;;;;;;;44.05;17.92;;;;;;;8.18;38.69;101701.53;4994513;28;20053;-75
2022/03/10 07:31:45;;;;;;;49.78;19.27;;;;;;;8.25;38.78;101710.16;4994853;28;20061;-75
2022/03/10 07:34:31;;;;;;;31.20;14.55;;;;;;;8.16;38.18;101707.19;4994652;28;20521;-75
2022/03/10 07:37:16;;;;;;;40.53;18.92;;;;;;;8.16;38.29;101713.44;4994857;28;20418;-73
2022/03/10 07:40:01;;;;;;;37.75;16.08;;;;;;;8.49;38.41;101706.59;4994715;28;20406;-72
2022/03/10 07:42:46;;;;;;;33.97;14.45;;;;;;;8.53;38.06;101707.63;4994456;28;20402;-72
2022/03/10 07:45:31;;;;;;;31.52;14.25;;;;;;;8.44;38.35;101709.31;4994564;28;20405;-73
2022/03/10 07:48:17;;;;;;;36.83;16.33;;;;;;;8.50;37.67;101708.22;4994661;28;20053;-73
2022/03/10 07:51:02;;;;;;;;;;;;;;;8.50;37.09;101715.53;4995380;28;20054;-72
2022/03/10 07:53:47;;;;;;;36.72;17.17;;;;;;;8.59;37.28;101714.66;4994548;28;20148;-75
2022/03/10 07:56:32;;;;;;;;;;;;;;;8.82;36.09;101707.00;4994818;28;20045;-72
2022/03/10 07:59:17;;;;;;;39.55;18.23;;;;;;;8.82;36.26;101715.94;4994705;28;20273;-72
2022/03/10 08:02:01;;;;;;;29.20;13.05;;;;;;;9.04;36.50;101712.81;4999844;28;20140;-72
2022/03/10 08:04:47;;;;;;;27.73;14.52;;;;;;;9.18;35.33;101700.28;4994315;28;20058;-72
2022/03/10 08:07:34;;;;;;;46.33;18.42;;;;;;;9.18;35.62;101704.88;4980939;28;20430;-72
2022/03/10 08:10:18;;;;;;;40.35;17.50;;;;;;;9.17;35.82;101701.34;4994407;28;20045;-73
2022/03/10 08:13:03;;;;;;;35.65;17.70;;;;;;;9.47;35.17;101716.63;4994139;28;20057;-72
2022/03/10 08:15:48;;;;;;;29.85;13.57;;;;;;;9.39;35.13;101707.19;4999064;28;20053;-75
2022/03/10 08:18:32;;;;;;;39.28;19.63;;;;;;;9.43;34.91;101705.53;4999520;28;20053;-72
2022/03/10 08:21:17;;;;;;;30.98;14.93;;;;;;;9.63;34.88;101709.16;4993887;28;20406;-72
2022/03/10 08:24:02;;;;;;;32.90;15.75;;;;;;;9.72;35.26;101705.53;4993886;28;20413;-72
2022/03/10 08:26:48;;;;;;;28.10;14.25;;;;;;;9.73;35.20;101698.22;4993940;28;20053;-72
2022/03/10 08:29:32;;;;;;;36.33;16.27;;;;;;;10.01;34.56;101708.25;4999451;28;20058;-73
2022/03/10 08:32:19;;;;;;;25.58;13.25;;;;;;;10.24;34.45;101707.53;4993826;28;20034;-72
2022/03/10 08:35:04;;;;;;;47.78;19.33;;;;;;;10.07;34.29;101704.41;4993748;28;20046;-72
2022/03/10 08:37:49;;;;;;;30.90;16.27;;;;;;;10.01;34.49;101702.81;4993478;28;20042;-73
2022/03/10 08:40:35;;;;;;;42.33;18.88;;;;;;;10.07;34.42;101698.16;4992710;28;20057;-73
2022/03/10 08:43:22;;;;;;;35.88;16.30;;;;;;;10.08;34.25;101694.34;4993539;28;20044;-72
2022/03/10 08:46:07;;;;;;;34.47;18.88;;;;;;;10.34;34.23;101700.34;4993495;28;20050;-72
2022/03/10 08:48:51;;;;;;;29.98;15.40;;;;;;;10.35;34.10;101699.25;4993452;28;20039;-72
2022/03/10 08:51:37;;;;;;;39.08;19.08;;;;;;;10.56;34.04;101700.63;4993426;28;20042;-72
2022/03/10 08:54:21;;;;;;;34.85;14.52;;;;;;;10.70;33.70;101691.47;4993336;28;20041;-72
2022/03/10 08:57:06;;;;;;;27.40;13.27;;;;;;;10.78;33.60;101692.72;4993280;28;20490;-73
2022/03/10 08:59:51;;;;;;;28.95;14.30;;;;;;;11.15;32.89;101687.31;4998734;28;20038;-73
2022/03/10 09:02:36;;;;;;;33.17;15.55;;;;;;;10.92;33.19;101690.88;4998878;28;20412;-75
2022/03/10 09:05:21;;;;;;;36.42;14.65;;;;;;;11.10;33.77;101684.66;4984966;28;20046;-72
2022/03/10 09:08:06;;;;;;;28.58;13.95;;;;;;;11.25;33.51;101683.63;4985026;28;20046;-73
2022/03/10 09:10:51;;;;;;;28.63;14.23;;;;;;;11.35;34.26;101682.63;4993180;28;20497;-73
2022/03/10 09:13:36;;;;;;;37.55;16.83;;;;;;;11.44;34.12;101678.94;4993136;28;20038;-73
2022/03/10 09:16:22;;;;;;;30.40;14.15;;;;;;;11.45;34.53;101674.31;4992761;28;20042;-73
2022/03/10 09:19:07;;;;;;;41.05;19.45;;;;;;;11.56;34.87;101675.75;4993258;28;20050;-73
2022/03/10 09:21:52;;;;;;;32.85;15.35;;;;;;;11.74;34.55;101668.66;4992990;28;20406;-72
2022/03/10 09:24:37;;;;;;;39.55;17.85;;;;;;;11.88;35.60;101672.25;4998499;28;20050;-72
2022/03/10 09:27:22;;;;;;;31.48;16.75;;;;;;;12.01;34.99;101671.44;4992924;28;20046;-73
2022/03/10 09:30:09;;;;;;;36.10;16.02;;;;;;;12.00;35.49;101667.91;4992889;28;20050;-73
2022/03/10 09:32:54;;;;;;;36.35;18.40;;;;;;;12.05;36.03;101669.72;4999706;28;20038;-73
2022/03/10 09:35:39;;;;;;;36.50;16.40;;;;;;;11.96;36.21;101666.09;4998307;28;20042;-73
2022/03/10 09:38:24;;;;;;;30.08;15.68;;;;;;;12.03;36.48;101661.06;4992756;28;20038;-73
2022/03/10 09:41:09;;;;;;;28.00;14.80;;;;;;;12.15;35.85;101671.44;4992730;28;20046;-73
2022/03/10 09:43:55;;;;;;;25.75;14.82;;;;;;;12.24;36.60;101664.97;4996580;28;20046;-73
2022/03/10 09:46:41;;;;;;;39.20;19.23;;;;;;;12.37;36.32;101660.66;4992461;28;20038;-73
2022/03/10 09:49:26;;;;;;;38.72;18.98;;;;;;;12.34;36.54;101664.00;4992612;28;20050;-73
2022/03/10 09:52:12;;;;;;;43.22;18.92;;;;;;;12.27;36.41;101666.31;4996225;28;20042;-73
2022/03/10 09:54:59;;;;;;;44.47;21.33;;;;;;;12.43;36.35;101664.91;4996578;28;20050;-73
2022/03/10 09:57:45;;;;;;;32.20;17.80;;;;;;;12.89;36.05;101659.25;4996379;28;20050;-73
2022/03/10 10:00:30;;;;;;;37.17;18.65;;;;;;;12.87;36.22;101666.94;4996396;28;20397;-73
2022/03/10 10:03:15;;;;;;;41.70;19.55;;;;;;;13.05;35.48;101662.47;4996544;28;20047;-73
2022/03/10 10:06:02;;;;;;;38.30;18.67;;;;;;;13.00;35.47;101655.19;4996783;28;20046;-73
2022/03/10 10:08:56;;;;;;;37.33;18.08;;;;;;;13.02;34.81;101658.41;4996315;28;20494;-73
2022/03/10 10:11:41;;;;;;;40.13;18.30;;;;;;;13.07;34.19;101654.75;4996212;28;20046;-72
2022/03/10 10:14:37;;;;;;;30.23;17.25;;;;;;;13.11;34.21;101653.00;4996329;28;20043;-73
2022/03/10 10:17:29;;;;;;;41.80;18.60;;;;;;;13.23;33.34;101654.13;4996197;28;20042;-73
2022/03/10 10:20:14;;;;;;;51.33;17.88;;;;;;;13.30;32.66;101652.88;4996920;28;20054;-73
2022/03/10 10:23:26;;;;;;;26.23;13.45;;;;;;;13.33;32.19;101650.31;5015630;28;20042;-73
2022/03/10 10:26:13;;;;;;;33.45;18.20;;;;;;;13.36;31.83;101654.38;5005881;28;20038;-73
2022/03/10 10:28:57;;;;;;;39.75;18.52;;;;;;;13.32;30.84;101648.72;5003528;28;20050;-72
2022/03/10 10:31:42;;;;;;;31.30;16.85;;;;;;;13.24;31.14;101646.72;4996168;28;20072;-73
2022/03/10 10:34:30;;;;;;;30.75;15.18;;;;;;;13.21;30.52;101642.69;4988321;28;20043;-73
2022/03/10 10:37:23;;;;;;;38.90;18.48;;;;;;;13.52;29.86;101642.75;4982586;28;20042;-75
2022/03/10 10:40:09;;;;;;;42.70;21.77;;;;;;;13.60;30.11;101643.91;4992853;28;20046;-74
2022/03/10 10:42:55;;;;;;;35.58;18.70;;;;;;;13.55;30.04;101638.59;5001101;28;20486;-74
2022/03/10 10:45:40;;;;;;;37.50;18.42;;;;;;;13.50;31.27;101642.25;4995714;28;20054;-75
2022/03/10 10:48:25;;;;;;;29.67;14.43;;;;;;;13.96;31.02;101646.53;5001157;28;20050;-74
2022/03/10 10:51:11;;;;;;;28.42;14.27;;;;;;;14.10;30.47;101641.75;4987164;28;20223;-75
2022/03/10 10:53:58;;;;;;;34.42;19.08;;;;;;;14.23;28.56;101632.63;4991887;28;20042;-74
2022/03/10 10:56:50;;;;;;;40.22;19.90;;;;;;;14.35;28.05;101641.03;4995538;28;20046;-74
2022/03/10 10:59:40;;;;;;;34.75;17.85;;;;;;;14.45;27.70;101631.75;4997701;28;20050;-74
2022/03/10 11:02:25;;;;;;;29.65;17.13;;;;;;;14.53;28.54;101628.22;4994392;28;20038;-75
2022/03/10 11:05:14;;;;;;;49.80;18.30;;;;;;;14.55;27.19;101623.22;5000826;28;20425;-74
2022/03/10 11:07:59;;;;;;;41.83;19.70;;;;;;;14.71;28.02;101627.13;4995200;28;20042;-74
2022/03/10 11:10:44;;;;;;;31.38;18.48;;;;;;;14.95;27.89;101624.72;4995068;28;20050;-75
2022/03/10 11:13:30;;;;;;;43.42;18.42;;;;;;;15.39;26.16;101620.00;5013136;28;20034;-74
2022/03/10 11:16:16;;;;;;;42.33;18.83;;;;;;;15.47;26.34;101615.63;5011491;28;20050;-74
2022/03/10 11:19:01;;;;;;;39.53;17.85;;;;;;;15.99;25.46;101617.13;5009182;28;20046;-74
2022/03/10 11:21:56;;;;;;;;;;;;;;;17.88;23.31;101610.09;4995514;28;20050;-74
2022/03/10 11:25:03;;;;;;;35.67;17.25;;;;;;;23.65;16.04;101621.94;4994826;28;19917;-75
2022/03/10 11:27:52;;;;;;;36.33;17.02;;;;;;;27.49;13.35;101627.09;4993896;28;20038;-75
2022/03/10 11:30:38;;;;;;;33.15;18.80;;;;;;;29.93;10.96;101632.84;4993926;28;20045;-75
2022/03/10 11:33:32;;;;;;;36.63;19.63;;;;;;;30.38;10.50;101629.63;4977840;28;20506;-75
2022/03/10 11:36:25;;;;;;;37.10;20.15;;;;;;;31.44;9.44;101619.06;4994794;28;20042;-74
2022/03/10 11:39:10;;;;;;;38.30;20.50;;;;;;;31.37;10.19;101630.47;4986436;28;20073;-75
2022/03/10 11:42:00;;;;;;;36.70;20.55;;;;;;;33.31;8.42;101635.03;4986127;28;20494;-75
2022/03/10 11:44:50;;;;;;;32.40;19.83;;;;;;;31.12;9.34;101627.41;4994514;28;20053;-75
2022/03/10 11:47:38;;;;;;;33.80;20.85;;;;;;;33.75;8.40;101619.13;4994394;28;20061;-74
2022/03/10 11:50:22;;;;;;;35.20;20.33;;;;;;;32.89;8.38;101617.31;4994462;28;20057;-74
2022/03/10 11:53:12;;;;;;;31.02;20.90;;;;;;;34.82;7.62;101621.84;4984766;28;20509;-75
2022/03/10 11:55:56;;;;;;;35.08;20.27;;;;;;;34.26;7.95;101611.34;4994395;28;20053;-74
2022/03/10 11:58:41;;;;;;;41.63;19.30;;;;;;;33.99;7.79;101611.84;4994611;28;20517;-74
2022/03/10 12:01:26;;;;;;;50.22;20.10;;;;;;;34.25;7.40;101610.53;4994262;28;20505;-74
2022/03/10 12:04:21;;;;;;;33.30;19.75;;;;;;;33.71;7.14;101601.53;4980526;28;20509;-76
2022/03/10 12:07:14;;;;;;;30.13;19.95;;;;;;;34.02;7.53;101596.81;4985707;28;20406;-76
2022/03/10 12:10:05;;;;;;;34.97;20.00;;;;;;;32.89;8.21;101589.94;4993884;28;20046;-75
2022/03/10 12:12:50;;;;;;;30.10;19.45;;;;;;;33.76;7.61;101592.47;4986091;28;20049;-75
2022/03/10 12:15:35;;;;;;;37.50;21.10;;;;;;;33.74;7.97;101587.28;4982918;28;20421;-76
2022/03/10 12:18:24;;;;;;;38.13;21.42;;;;;;;33.66;7.76;101577.47;4993871;28;20417;-74
2022/03/10 12:21:32;;;;;;;32.45;19.67;;;;;;;32.84;8.55;101576.41;4992255;28;20410;-74
2022/03/10 12:24:33;;;;;;;36.22;20.75;;;;;;;31.39;9.58;101569.75;4988596;28;20042;-74
2022/03/10 12:27:18;;;;;;;33.15;20.40;;;;;;;31.62;9.12;101568.03;4993545;28;20053;-74
2022/03/10 12:30:04;;;;;;;37.13;22.52;;;;;;;31.09;9.38;101564.44;4993432;28;20065;-74
2022/03/10 12:32:51;;;;;;;36.25;20.35;;;;;;;31.09;9.78;101567.25;4982866;28;20061;-74
2022/03/10 12:35:38;;;;;;;37.25;22.42;;;;;;;30.28;10.18;101557.66;4991075;28;20516;-74
2022/03/10 12:38:37;;;;;;;37.33;21.70;;;;;;;30.04;10.40;101556.91;4985404;28;20038;-74
2022/03/10 12:41:33;;;;;;;34.88;21.50;;;;;;;29.29;11.23;101548.91;4982906;28;20045;-74
2022/03/10 12:44:19;;;;;;;43.60;23.67;;;;;;;30.31;10.29;101552.00;4993570;28;20417;-74
2022/03/10 12:47:09;;;;;;;33.80;22.58;;;;;;;30.45;9.61;101537.66;4993223;28;20043;-74
2022/03/10 12:49:56;;;;;;;42.75;21.88;;;;;;;31.19;9.65;101543.72;4991237;28;20081;-74